sensor_id;sensor_type;location;lat;lon;timestamp;P1;durP1;ratioP1;P2;durP2;ratioP2
30466;SDS011;17258;52.560;13.046;2023-05-17T00:05:45;2.80;;;1.30;;
30466;SDS011;17258;52.560;13.046;2023-05-17T00:15:45;1.57;;;1.17;;
30466;SDS011;17258;52.560;13.046;2023-05-17T00:25:46;2.90;;;1.47;;
30466;SDS011;17258;52.560;13.046;2023-05-17T00:35:46;1.93;;;1.20;;
30466;SDS011;17258;52.560;13.046;2023-05-17T00:45:47;1.27;;;1.20;;
30466;SDS011;17258;52.560;13.046;2023-05-17T00:55:53;2.08;;;1.58;;
30466;SDS011;17258;52.560;13.046;2023-05-17T01:05:54;3.35;;;1.38;;
30466;SDS011;17258;52.560;13.046;2023-05-17T01:15:57;6.97;;;1.38;;
30466;SDS011;17258;52.560;13.046;2023-05-17T01:36:20;4.72;;;1.88;;
30466;SDS011;17258;52.560;13.046;2023-05-17T01:46:23;2.03;;;1.50;;
30466;SDS011;17258;52.560;13.046;2023-05-17T01:56:32;3.67;;;2.03;;
30466;SDS011;17258;52.560;13.046;2023-05-17T02:06:33;5.05;;;1.70;;
30466;SDS011;17258;52.560;13.046;2023-05-17T02:16:37;3.17;;;1.70;;
30466;SDS011;17258;52.560;13.046;2023-05-17T02:26:38;3.10;;;2.00;;
30466;SDS011;17258;52.560;13.046;2023-05-17T02:36:41;4.38;;;2.40;;
30466;SDS011;17258;52.560;13.046;2023-05-17T02:46:43;3.88;;;1.73;;
30466;SDS011;17258;52.560;13.046;2023-05-17T02:56:44;7.93;;;2.13;;
30466;SDS011;17258;52.560;13.046;2023-05-17T03:06:44;5.05;;;2.40;;
30466;SDS011;17258;52.560;13.046;2023-05-17T03:16:45;3.77;;;2.27;;
30466;SDS011;17258;52.560;13.046;2023-05-17T03:26:46;6.32;;;2.20;;
30466;SDS011;17258;52.560;13.046;2023-05-17T03:36:52;3.45;;;2.35;;
30466;SDS011;17258;52.560;13.046;2023-05-17T03:46:59;3.13;;;2.10;;
30466;SDS011;17258;52.560;13.046;2023-05-17T03:57:00;2.90;;;2.35;;
30466;SDS011;17258;52.560;13.046;2023-05-17T04:07:04;4.25;;;2.15;;
30466;SDS011;17258;52.560;13.046;2023-05-17T04:17:07;4.35;;;2.65;;
30466;SDS011;17258;52.560;13.046;2023-05-17T04:27:16;4.70;;;2.28;;
30466;SDS011;17258;52.560;13.046;2023-05-17T04:37:19;3.72;;;2.42;;
30466;SDS011;17258;52.560;13.046;2023-05-17T04:47:19;8.70;;;2.70;;
30466;SDS011;17258;52.560;13.046;2023-05-17T04:57:20;4.40;;;2.57;;
30466;SDS011;17258;52.560;13.046;2023-05-17T05:07:21;3.92;;;3.05;;
30466;SDS011;17258;52.560;13.046;2023-05-17T05:17:24;4.75;;;2.80;;
30466;SDS011;17258;52.560;13.046;2023-05-17T05:27:32;5.43;;;3.22;;
30466;SDS011;17258;52.560;13.046;2023-05-17T05:37:41;4.57;;;2.50;;
30466;SDS011;17258;52.560;13.046;2023-05-17T05:47:51;3.70;;;2.17;;
30466;SDS011;17258;52.560;13.046;2023-05-17T05:57:52;5.15;;;2.45;;
30466;SDS011;17258;52.560;13.046;2023-05-17T06:07:55;5.30;;;3.70;;
30466;SDS011;17258;52.560;13.046;2023-05-17T06:18:05;3.55;;;2.15;;
30466;SDS011;17258;52.560;13.046;2023-05-17T06:28:11;6.43;;;2.53;;
30466;SDS011;17258;52.560;13.046;2023-05-17T06:38:17;6.53;;;2.05;;
30466;SDS011;17258;52.560;13.046;2023-05-17T06:48:24;3.70;;;1.88;;
30466;SDS011;17258;52.560;13.046;2023-05-17T06:58:28;4.45;;;2.30;;
30466;SDS011;17258;52.560;13.046;2023-05-17T07:08:29;5.28;;;2.03;;
30466;SDS011;17258;52.560;13.046;2023-05-17T07:18:32;3.67;;;2.00;;
30466;SDS011;17258;52.560;13.046;2023-05-17T07:28:40;4.20;;;1.90;;
30466;SDS011;17258;52.560;13.046;2023-05-17T07:38:44;6.37;;;2.33;;
30466;SDS011;17258;52.560;13.046;2023-05-17T07:48:45;16.20;;;14.68;;
30466;SDS011;17258;52.560;13.046;2023-05-17T07:58:46;16.27;;;14.93;;
30466;SDS011;17258;52.560;13.046;2023-05-17T08:08:52;17.13;;;15.65;;
30466;SDS011;17258;52.560;13.046;2023-05-17T08:19:02;17.00;;;15.52;;
30466;SDS011;17258;52.560;13.046;2023-05-17T08:29:02;15.88;;;14.75;;
30466;SDS011;17258;52.560;13.046;2023-05-17T08:39:04;17.20;;;16.05;;
30466;SDS011;17258;52.560;13.046;2023-05-17T08:49:04;15.47;;;14.40;;
30466;SDS011;17258;52.560;13.046;2023-05-17T08:59:11;13.52;;;12.43;;
30466;SDS011;17258;52.560;13.046;2023-05-17T09:09:15;8.60;;;7.78;;
30466;SDS011;17258;52.560;13.046;2023-05-17T09:19:17;5.70;;;5.20;;
30466;SDS011;17258;52.560;13.046;2023-05-17T09:29:25;6.70;;;3.27;;
30466;SDS011;17258;52.560;13.046;2023-05-17T09:39:32;4.47;;;2.28;;
30466;SDS011;17258;52.560;13.046;2023-05-17T09:49:39;3.05;;;2.25;;
30466;SDS011;17258;52.560;13.046;2023-05-17T09:59:42;2.83;;;1.35;;
30466;SDS011;17258;52.560;13.046;2023-05-17T10:10:14;2.40;;;1.27;;
30466;SDS011;17258;52.560;13.046;2023-05-17T10:20:17;3.03;;;1.67;;
30466;SDS011;17258;52.560;13.046;2023-05-17T10:30:21;3.05;;;1.83;;
30466;SDS011;17258;52.560;13.046;2023-05-17T10:40:24;4.15;;;1.98;;
30466;SDS011;17258;52.560;13.046;2023-05-17T10:50:28;10.23;;;1.83;;
30466;SDS011;17258;52.560;13.046;2023-05-17T11:00:50;2.05;;;1.42;;
30466;SDS011;17258;52.560;13.046;2023-05-17T11:11:11;3.93;;;1.90;;
30466;SDS011;17258;52.560;13.046;2023-05-17T11:21:18;2.17;;;1.25;;
30466;SDS011;17258;52.560;13.046;2023-05-17T11:31:27;6.65;;;1.73;;
30466;SDS011;17258;52.560;13.046;2023-05-17T11:41:35;3.00;;;1.60;;
30466;SDS011;17258;52.560;13.046;2023-05-17T11:52:14;3.63;;;1.80;;
30466;SDS011;17258;52.560;13.046;2023-05-17T12:02:25;2.40;;;1.67;;
30466;SDS011;17258;52.560;13.046;2023-05-17T12:12:36;2.75;;;2.08;;
30466;SDS011;17258;52.560;13.046;2023-05-17T12:22:52;3.72;;;1.63;;
30466;SDS011;17258;52.560;13.046;2023-05-17T12:33:00;1.30;;;1.20;;
30466;SDS011;17258;52.560;13.046;2023-05-17T12:43:04;4.80;;;1.85;;
30466;SDS011;17258;52.560;13.046;2023-05-17T12:53:08;4.45;;;1.67;;
30466;SDS011;17258;52.560;13.046;2023-05-17T13:03:09;4.80;;;1.90;;
30466;SDS011;17258;52.560;13.046;2023-05-17T13:13:10;3.70;;;1.70;;
30466;SDS011;17258;52.560;13.046;2023-05-17T13:23:19;2.70;;;1.35;;
30466;SDS011;17258;52.560;13.046;2023-05-17T13:33:22;2.97;;;1.83;;
30466;SDS011;17258;52.560;13.046;2023-05-17T13:43:23;4.65;;;1.90;;
30466;SDS011;17258;52.560;13.046;2023-05-17T13:53:24;4.80;;;1.75;;
30466;SDS011;17258;52.560;13.046;2023-05-17T14:03:25;2.28;;;1.40;;
30466;SDS011;17258;52.560;13.046;2023-05-17T14:13:26;6.50;;;2.03;;
30466;SDS011;17258;52.560;13.046;2023-05-17T14:23:28;2.05;;;1.50;;
30466;SDS011;17258;52.560;13.046;2023-05-17T14:33:37;1.27;;;1.17;;
30466;SDS011;17258;52.560;13.046;2023-05-17T14:43:41;2.40;;;1.63;;
30466;SDS011;17258;52.560;13.046;2023-05-17T14:53:45;2.50;;;1.65;;
30466;SDS011;17258;52.560;13.046;2023-05-17T15:03:46;3.00;;;1.25;;
30466;SDS011;17258;52.560;13.046;2023-05-17T15:13:47;2.42;;;1.55;;
30466;SDS011;17258;52.560;13.046;2023-05-17T15:23:50;4.15;;;1.50;;
30466;SDS011;17258;52.560;13.046;2023-05-17T15:33:51;2.78;;;1.52;;
30466;SDS011;17258;52.560;13.046;2023-05-17T15:43:52;2.10;;;1.75;;
30466;SDS011;17258;52.560;13.046;2023-05-17T15:53:54;6.78;;;1.52;;
30466;SDS011;17258;52.560;13.046;2023-05-17T16:03:55;5.28;;;1.25;;
30466;SDS011;17258;52.560;13.046;2023-05-17T16:14:01;3.78;;;1.80;;
30466;SDS011;17258;52.560;13.046;2023-05-17T16:24:05;2.58;;;1.50;;
30466;SDS011;17258;52.560;13.046;2023-05-17T16:34:06;1.98;;;1.50;;
30466;SDS011;17258;52.560;13.046;2023-05-17T16:44:06;2.33;;;1.40;;
30466;SDS011;17258;52.560;13.046;2023-05-17T16:54:07;4.03;;;1.63;;
30466;SDS011;17258;52.560;13.046;2023-05-17T17:04:14;2.40;;;1.40;;
30466;SDS011;17258;52.560;13.046;2023-05-17T17:14:15;2.17;;;1.38;;
30466;SDS011;17258;52.560;13.046;2023-05-17T17:24:19;2.10;;;1.58;;
30466;SDS011;17258;52.560;13.046;2023-05-17T17:34:25;3.08;;;1.30;;
30466;SDS011;17258;52.560;13.046;2023-05-17T17:44:26;2.00;;;1.35;;
30466;SDS011;17258;52.560;13.046;2023-05-17T17:54:33;2.90;;;1.50;;
30466;SDS011;17258;52.560;13.046;2023-05-17T18:04:34;3.47;;;1.33;;
30466;SDS011;17258;52.560;13.046;2023-05-17T18:14:39;1.58;;;1.33;;
30466;SDS011;17258;52.560;13.046;2023-05-17T18:24:49;3.30;;;1.52;;
30466;SDS011;17258;52.560;13.046;2023-05-17T18:35:05;3.88;;;1.50;;
30466;SDS011;17258;52.560;13.046;2023-05-17T18:45:06;1.40;;;1.30;;
30466;SDS011;17258;52.560;13.046;2023-05-17T18:55:13;1.80;;;1.30;;
30466;SDS011;17258;52.560;13.046;2023-05-17T19:05:17;2.33;;;1.60;;
30466;SDS011;17258;52.560;13.046;2023-05-17T19:15:18;2.08;;;1.30;;
30466;SDS011;17258;52.560;13.046;2023-05-17T19:25:19;1.27;;;1.05;;
30466;SDS011;17258;52.560;13.046;2023-05-17T19:35:20;2.15;;;1.52;;
30466;SDS011;17258;52.560;13.046;2023-05-17T19:45:21;5.10;;;1.90;;
30466;SDS011;17258;52.560;13.046;2023-05-17T19:55:21;3.08;;;1.50;;
30466;SDS011;17258;52.560;13.046;2023-05-17T20:05:23;2.85;;;1.40;;
30466;SDS011;17258;52.560;13.046;2023-05-17T20:15:26;4.10;;;1.17;;
30466;SDS011;17258;52.560;13.046;2023-05-17T20:25:27;1.10;;;1.02;;
30466;SDS011;17258;52.560;13.046;2023-05-17T20:35:34;1.48;;;1.38;;
30466;SDS011;17258;52.560;13.046;2023-05-17T20:45:34;2.50;;;1.50;;
30466;SDS011;17258;52.560;13.046;2023-05-17T20:55:35;2.97;;;1.30;;
30466;SDS011;17258;52.560;13.046;2023-05-17T21:05:36;2.47;;;1.70;;
30466;SDS011;17258;52.560;13.046;2023-05-17T21:15:37;1.50;;;1.40;;
30466;SDS011;17258;52.560;13.046;2023-05-17T21:25:38;1.60;;;1.50;;
30466;SDS011;17258;52.560;13.046;2023-05-17T21:35:38;2.43;;;2.13;;
30466;SDS011;17258;52.560;13.046;2023-05-17T21:45:39;2.70;;;2.20;;
30466;SDS011;17258;52.560;13.046;2023-05-17T21:55:40;3.53;;;2.85;;
30466;SDS011;17258;52.560;13.046;2023-05-17T22:05:44;3.90;;;2.83;;
30466;SDS011;17258;52.560;13.046;2023-05-17T22:15:46;7.35;;;5.70;;
30466;SDS011;17258;52.560;13.046;2023-05-17T22:25:47;6.72;;;5.28;;
30466;SDS011;17258;52.560;13.046;2023-05-17T22:35:48;3.47;;;3.13;;
30466;SDS011;17258;52.560;13.046;2023-05-17T22:45:51;6.40;;;2.55;;
30466;SDS011;17258;52.560;13.046;2023-05-17T22:55:52;1.67;;;1.57;;
30466;SDS011;17258;52.560;13.046;2023-05-17T23:05:53;16.43;;;1.87;;
30466;SDS011;17258;52.560;13.046;2023-05-17T23:16:01;1.67;;;1.40;;
30466;SDS011;17258;52.560;13.046;2023-05-17T23:26:01;3.10;;;1.17;;
30466;SDS011;17258;52.560;13.046;2023-05-17T23:36:04;1.15;;;0.95;;
30466;SDS011;17258;52.560;13.046;2023-05-17T23:46:06;1.67;;;1.33;;
30466;SDS011;17258;52.560;13.046;2023-05-17T23:56:07;2.80;;;1.20;;
